createdAt,value
2022-11-25T00:01:48.062Z,101393.34
2022-11-25T00:04:53.409Z,101391.59
2022-11-25T00:07:59.171Z,101393.94
2022-11-25T00:11:06.542Z,101397.53
2022-11-25T00:14:15.081Z,101396.06
2022-11-25T00:17:20.457Z,101395.25
2022-11-25T00:20:25.830Z,101393.03
2022-11-25T00:23:33.410Z,101386.69
2022-11-25T00:26:39.128Z,101387.00
2022-11-25T00:29:44.593Z,101384.53
2022-11-25T00:32:49.830Z,101383.47
2022-11-25T00:35:55.157Z,101383.91
2022-11-25T00:39:03.340Z,101375.53
2022-11-25T00:42:28.929Z,101380.00
2022-11-25T00:45:34.276Z,101371.41
2022-11-25T00:48:39.887Z,101365.84
2022-11-25T00:51:45.370Z,101366.88
2022-11-25T00:54:52.289Z,101374.97
2022-11-25T00:57:57.725Z,101385.13
2022-11-25T01:01:05.180Z,101393.69
2022-11-25T01:04:10.893Z,101405.00
2022-11-25T01:07:18.291Z,101406.09
2022-11-25T01:10:23.825Z,101410.28
2022-11-25T01:13:29.571Z,101409.38
2022-11-25T01:16:35.387Z,101401.63
2022-11-25T01:19:42.244Z,101406.16
2022-11-25T01:22:48.021Z,101413.66
2022-11-25T01:25:53.172Z,101407.00
2022-11-25T01:29:01.169Z,101412.56
2022-11-25T01:32:06.503Z,101415.78
2022-11-25T01:35:12.543Z,101424.88
2022-11-25T01:38:17.936Z,101440.03
2022-11-25T01:41:26.740Z,101445.69
2022-11-25T01:44:33.633Z,101447.31
2022-11-25T01:47:39.793Z,101449.13
2022-11-25T01:50:47.548Z,101443.72
2022-11-25T01:53:57.918Z,101439.91
2022-11-25T01:57:10.136Z,101442.41
2022-11-25T02:00:18.139Z,101459.69
2022-11-25T02:03:32.246Z,101469.84
2022-11-25T02:06:48.052Z,101477.47
2022-11-25T02:09:55.981Z,101477.53
2022-11-25T02:13:01.650Z,101475.81
2022-11-25T02:16:07.090Z,101464.59
2022-11-25T02:19:28.014Z,101462.69
2022-11-25T02:22:51.413Z,101468.41
2022-11-25T02:25:57.296Z,101470.72
2022-11-25T02:29:02.805Z,101480.75
2022-11-25T02:32:08.982Z,101478.31
2022-11-25T02:35:33.489Z,101497.94
2022-11-25T02:38:48.218Z,101499.28
2022-11-25T02:41:58.859Z,101497.22
2022-11-25T02:45:05.564Z,101500.97
2022-11-25T02:48:10.981Z,101504.34
2022-11-25T02:51:20.130Z,101493.28
2022-11-25T02:54:25.442Z,101492.88
2022-11-25T02:57:31.190Z,101497.94
2022-11-25T03:00:36.789Z,101508.44
2022-11-25T03:03:42.789Z,101506.50
2022-11-25T03:06:48.053Z,101508.75
2022-11-25T03:09:53.346Z,101488.94
2022-11-25T03:12:58.825Z,101494.34
2022-11-25T03:16:04.895Z,101488.25
2022-11-25T03:19:10.901Z,101488.13
2022-11-25T03:22:16.516Z,101492.66
2022-11-25T03:25:22.475Z,101503.63
2022-11-25T03:28:29.128Z,101516.75
2022-11-25T03:31:36.562Z,101512.06
2022-11-25T03:34:42.483Z,101513.06
2022-11-25T03:37:48.319Z,101512.63
2022-11-25T03:40:53.970Z,101506.56
2022-11-25T03:43:59.975Z,101505.47
2022-11-25T03:47:05.594Z,101519.09
2022-11-25T03:50:13.730Z,101529.13
2022-11-25T03:53:19.471Z,101529.34
2022-11-25T03:56:25.576Z,101534.09
2022-11-25T03:59:30.998Z,101537.06
2022-11-25T04:02:36.525Z,101536.94
2022-11-25T04:05:42.385Z,101540.22
2022-11-25T04:08:48.259Z,101534.31
2022-11-25T04:12:12.073Z,101545.16
2022-11-25T04:15:28.630Z,101538.63
2022-11-25T04:18:36.479Z,101539.34
2022-11-25T04:21:41.834Z,101544.56
2022-11-25T04:24:48.680Z,101536.88
2022-11-25T04:27:59.888Z,101539.72
2022-11-25T04:31:11.978Z,101523.34
2022-11-25T04:34:21.175Z,101517.03
2022-11-25T04:37:29.421Z,101528.78
2022-11-25T04:40:35.631Z,101529.19
2022-11-25T04:43:56.372Z,101530.69
2022-11-25T04:47:01.797Z,101517.56
2022-11-25T04:50:13.128Z,101527.69
2022-11-25T04:53:28.378Z,101529.66
2022-11-25T04:56:33.869Z,101516.72
2022-11-25T04:59:42.671Z,101502.22
2022-11-25T05:02:50.945Z,101507.06
2022-11-25T05:05:58.792Z,101512.31
2022-11-25T05:09:05.046Z,101508.13
2022-11-25T05:12:25.984Z,101505.75
2022-11-25T05:15:31.765Z,101493.94
2022-11-25T05:18:37.367Z,101487.84
2022-11-25T05:21:42.842Z,101486.09
2022-11-25T05:24:49.323Z,101498.78
2022-11-25T05:27:56.152Z,101500.97
2022-11-25T05:31:01.578Z,101505.09
2022-11-25T05:34:08.327Z,101506.00
2022-11-25T05:37:17.729Z,101503.81
2022-11-25T05:40:35.167Z,101507.38
2022-11-25T05:43:47.690Z,101516.19
2022-11-25T05:46:54.367Z,101531.94
2022-11-25T05:50:00.027Z,101544.53
2022-11-25T05:53:06.230Z,101552.38
2022-11-25T05:56:13.813Z,101546.16
2022-11-25T05:59:42.018Z,101548.22
2022-11-25T06:02:53.701Z,101542.28
2022-11-25T06:06:03.072Z,101542.81
2022-11-25T06:09:10.069Z,101543.03
2022-11-25T06:12:16.789Z,101533.13
2022-11-25T06:15:27.171Z,101540.78
2022-11-25T06:18:37.859Z,101548.72
2022-11-25T06:21:45.601Z,101555.97
2022-11-25T06:24:58.898Z,101546.09
2022-11-25T06:28:13.106Z,101540.31
2022-11-25T06:31:25.593Z,101543.28
2022-11-25T06:34:50.968Z,101554.78
2022-11-25T06:38:17.050Z,101555.31
2022-11-25T06:41:23.339Z,101567.56
2022-11-25T06:44:29.053Z,101578.38
2022-11-25T06:47:34.435Z,101574.81
2022-11-25T06:50:40.341Z,101583.25
2022-11-25T06:53:46.950Z,101581.69
2022-11-25T06:56:54.083Z,101585.34
2022-11-25T07:00:00.098Z,101586.84
2022-11-25T07:03:05.761Z,101582.41
2022-11-25T07:06:16.269Z,101584.19
2022-11-25T07:09:22.948Z,101583.13
2022-11-25T07:12:28.283Z,101592.16
2022-11-25T07:15:35.160Z,101588.53
2022-11-25T07:18:42.148Z,101591.69
2022-11-25T07:21:47.964Z,101587.63
2022-11-25T07:24:53.337Z,101592.44
2022-11-25T07:27:58.860Z,101587.84
2022-11-25T07:31:27.520Z,101595.00
2022-11-25T07:34:34.802Z,101603.75
2022-11-25T07:37:40.475Z,101596.22
2022-11-25T07:40:46.381Z,101593.97
2022-11-25T07:43:54.475Z,101595.22
2022-11-25T07:47:02.865Z,101603.78
2022-11-25T07:50:09.292Z,101608.56
2022-11-25T07:53:14.634Z,101609.78
2022-11-25T07:56:21.762Z,101600.75
2022-11-25T07:59:27.971Z,101597.09
2022-11-25T08:02:34.421Z,101608.75
2022-11-25T08:05:40.168Z,101611.28
2022-11-25T08:08:46.633Z,101622.66
2022-11-25T08:11:53.123Z,101626.25
2022-11-25T08:14:59.028Z,101629.75
2022-11-25T08:18:04.572Z,101620.16
2022-11-25T08:21:13.325Z,101626.84
2022-11-25T08:24:21.330Z,101630.38
2022-11-25T08:27:26.953Z,101628.78
2022-11-25T08:30:32.626Z,101634.44
2022-11-25T08:33:38.513Z,101635.78
2022-11-25T08:36:48.202Z,101633.91
2022-11-25T08:39:55.473Z,101630.81
2022-11-25T08:43:02.671Z,101629.22
2022-11-25T08:46:20.925Z,101627.34
2022-11-25T08:49:34.989Z,101636.00
2022-11-25T08:52:44.805Z,101623.25
2022-11-25T08:55:51.022Z,101614.41
2022-11-25T08:58:57.930Z,101620.72
2022-11-25T09:02:03.612Z,101619.03
2022-11-25T09:05:13.721Z,101619.88
2022-11-25T09:08:21.356Z,101620.72
2022-11-25T09:11:27.529Z,101626.25
2022-11-25T09:14:33.090Z,101628.59
2022-11-25T09:17:38.666Z,101630.47
2022-11-25T09:20:45.181Z,101628.06
2022-11-25T09:23:52.802Z,101623.22
2022-11-25T09:26:58.160Z,101622.69
2022-11-25T09:30:04.236Z,101623.94
2022-11-25T09:33:09.929Z,101619.78
2022-11-25T09:36:18.640Z,101615.69
2022-11-25T09:39:28.551Z,101618.44
2022-11-25T09:43:21.019Z,101619.53
2022-11-25T09:46:51.729Z,101621.41
2022-11-25T09:50:06.086Z,101625.97
2022-11-25T09:53:33.254Z,101628.63
2022-11-25T09:56:45.456Z,101636.28
2022-11-25T10:00:11.590Z,101629.16
2022-11-25T10:03:36.106Z,101627.72
2022-11-25T10:06:48.402Z,101624.66
2022-11-25T10:10:01.762Z,101627.09
2022-11-25T10:13:22.261Z,101623.63
2022-11-25T10:16:36.508Z,101612.59
2022-11-25T10:19:57.428Z,101604.78
2022-11-25T10:23:16.943Z,101610.47
2022-11-25T10:26:27.716Z,101612.50
2022-11-25T10:29:38.525Z,101612.06
2022-11-25T10:32:50.704Z,101613.09
2022-11-25T10:36:06.496Z,101618.13
2022-11-25T10:39:20.121Z,101614.44
2022-11-25T10:42:28.923Z,101606.72
2022-11-25T10:45:45.608Z,101601.09
2022-11-25T10:49:15.024Z,101604.50
2022-11-25T10:52:24.300Z,101595.03
2022-11-25T10:55:33.994Z,101589.69
2022-11-25T10:58:41.121Z,101593.50
2022-11-25T11:01:47.111Z,101585.00
2022-11-25T11:05:00.502Z,101583.69
2022-11-25T11:08:12.421Z,101586.19
2022-11-25T11:11:23.722Z,101582.56
2022-11-25T11:14:30.441Z,101569.38
2022-11-25T11:17:37.417Z,101575.59
2022-11-25T11:20:48.876Z,101567.84
2022-11-25T11:23:57.551Z,101565.16
2022-11-25T11:27:08.198Z,101564.78
2022-11-25T11:30:27.287Z,101563.66
2022-11-25T11:33:59.110Z,101562.03
2022-11-25T11:37:38.372Z,101560.25
2022-11-25T11:40:52.222Z,101556.03
2022-11-25T11:44:18.856Z,101562.22
2022-11-25T11:47:45.327Z,101558.41
2022-11-25T11:51:18.334Z,101552.31
2022-11-25T11:54:44.068Z,101551.03
2022-11-25T11:58:01.712Z,101547.81
2022-11-25T12:01:25.089Z,101548.19
2022-11-25T12:04:54.037Z,101546.28
2022-11-25T12:08:34.689Z,101540.97
2022-11-25T12:11:46.182Z,101537.47
2022-11-25T12:14:57.922Z,101532.13
2022-11-25T12:18:29.499Z,101533.47
2022-11-25T12:21:53.820Z,101527.81
2022-11-25T12:25:09.311Z,101538.63
2022-11-25T12:28:35.502Z,101535.31
2022-11-25T12:31:56.743Z,101536.16
2022-11-25T12:35:11.364Z,101538.44
2022-11-25T12:38:27.939Z,101541.78
2022-11-25T12:41:43.630Z,101537.78
2022-11-25T12:45:07.574Z,101533.34
2022-11-25T12:48:17.323Z,101530.09
2022-11-25T12:51:46.082Z,101521.44
2022-11-25T12:55:07.591Z,101511.19
2022-11-25T12:58:54.155Z,101507.66
2022-11-25T13:02:05.569Z,101506.97
2022-11-25T13:05:45.207Z,101506.28
2022-11-25T13:09:28.327Z,101502.53
2022-11-25T13:13:07.686Z,101505.78
2022-11-25T13:16:15.743Z,101513.22
2022-11-25T13:19:24.157Z,101524.72
2022-11-25T13:22:30.256Z,101528.13
2022-11-25T13:25:38.007Z,101525.66
2022-11-25T13:28:43.707Z,101520.72
2022-11-25T13:32:25.673Z,101526.78
2022-11-25T13:35:34.964Z,101529.56
2022-11-25T13:38:49.756Z,101535.63
2022-11-25T13:42:25.248Z,101532.03
2022-11-25T13:45:43.499Z,101534.16
2022-11-25T13:48:49.847Z,101529.22
2022-11-25T13:52:17.721Z,101523.94
2022-11-25T13:55:32.025Z,101522.75
2022-11-25T13:58:37.911Z,101528.34
2022-11-25T14:01:46.339Z,101519.94
2022-11-25T14:05:11.643Z,101525.47
2022-11-25T14:08:27.120Z,101525.47
2022-11-25T14:11:47.308Z,101530.66
2022-11-25T14:15:25.407Z,101532.75
2022-11-25T14:19:28.486Z,101522.25
2022-11-25T14:22:58.180Z,101526.22
2022-11-25T14:26:41.771Z,101518.88
2022-11-25T14:29:44.276Z,101524.44
2022-11-25T14:33:11.802Z,101517.31
2022-11-25T14:36:40.852Z,101517.94
2022-11-25T14:40:01.791Z,101512.22
2022-11-25T14:43:15.547Z,101509.78
2022-11-25T14:46:23.628Z,101514.94
2022-11-25T14:49:55.730Z,101523.16
2022-11-25T14:53:12.297Z,101518.25
2022-11-25T14:56:26.386Z,101512.66
2022-11-25T14:59:32.159Z,101521.94
2022-11-25T15:02:41.476Z,101523.63
2022-11-25T15:05:57.410Z,101526.06
2022-11-25T15:09:21.345Z,101528.16
2022-11-25T15:12:32.791Z,101528.47
2022-11-25T15:15:38.770Z,101525.81
2022-11-25T15:18:54.783Z,101522.97
2022-11-25T15:25:28.988Z,101540.28
2022-11-25T15:28:36.955Z,101544.03
2022-11-25T15:31:42.729Z,101534.03
2022-11-25T15:34:49.732Z,101538.75
2022-11-25T15:37:55.306Z,101528.06
2022-11-25T15:41:01.732Z,101531.78
2022-11-25T15:44:07.568Z,101527.09
2022-11-25T15:47:29.118Z,101532.44
2022-11-25T15:50:35.591Z,101541.28
2022-11-25T15:53:47.215Z,101549.88
2022-11-25T15:57:16.657Z,101556.47
2022-11-25T16:00:23.757Z,101563.00
2022-11-25T16:03:31.885Z,101559.31
2022-11-25T16:06:37.349Z,101563.41
2022-11-25T16:09:51.654Z,101564.03
2022-11-25T16:13:21.143Z,101572.63
2022-11-25T16:16:30.292Z,101575.91
2022-11-25T16:19:46.822Z,101578.56
2022-11-25T16:22:52.553Z,101575.69
2022-11-25T16:26:04.695Z,101589.59
2022-11-25T16:29:31.657Z,101587.13
2022-11-25T16:32:37.308Z,101589.34
2022-11-25T16:35:43.756Z,101582.97
2022-11-25T16:38:54.094Z,101574.16
2022-11-25T16:42:04.481Z,101580.72
2022-11-25T16:45:20.286Z,101577.22
2022-11-25T16:48:25.836Z,101579.28
2022-11-25T16:51:31.772Z,101577.44
2022-11-25T16:54:39.622Z,101573.13
2022-11-25T16:57:45.816Z,101572.28
2022-11-25T17:00:57.396Z,101569.41
2022-11-25T17:04:03.103Z,101574.75
2022-11-25T17:07:32.099Z,101571.88
2022-11-25T17:10:42.656Z,101574.75
2022-11-25T17:13:52.881Z,101572.06
2022-11-25T17:17:05.336Z,101580.44
2022-11-25T17:20:15.980Z,101585.16
2022-11-25T17:23:22.896Z,101575.69
2022-11-25T17:26:34.743Z,101584.03
2022-11-25T17:29:45.066Z,101583.59
2022-11-25T17:32:58.960Z,101586.25
2022-11-25T17:36:04.972Z,101590.09
2022-11-25T17:39:12.462Z,101597.88
2022-11-25T17:42:23.345Z,101608.88
2022-11-25T17:45:29.927Z,101609.06
2022-11-25T17:48:36.397Z,101612.53
2022-11-25T17:51:43.721Z,101614.16
2022-11-25T17:54:49.825Z,101611.22
2022-11-25T17:57:56.292Z,101599.13
2022-11-25T18:01:02.562Z,101601.97
2022-11-25T18:04:21.696Z,101613.38
2022-11-25T18:07:27.602Z,101614.41
2022-11-25T18:10:33.626Z,101626.22
2022-11-25T18:13:42.167Z,101619.44
2022-11-25T18:16:48.380Z,101614.91
2022-11-25T18:19:55.489Z,101627.13
2022-11-25T18:23:02.892Z,101638.84
2022-11-25T18:26:12.603Z,101632.72
2022-11-25T18:29:25.002Z,101629.97
2022-11-25T18:32:30.973Z,101634.09
2022-11-25T18:35:37.247Z,101643.31
2022-11-25T18:38:53.801Z,101645.34
2022-11-25T18:42:01.814Z,101646.34
2022-11-25T18:45:15.893Z,101649.22
2022-11-25T18:48:26.412Z,101639.72
2022-11-25T18:51:32.911Z,101641.25
2022-11-25T18:54:38.702Z,101645.91
2022-11-25T18:57:48.905Z,101646.19
2022-11-25T19:01:04.303Z,101641.81
2022-11-25T19:04:17.023Z,101643.91
2022-11-25T19:07:22.634Z,101648.06
2022-11-25T19:10:32.607Z,101653.50
2022-11-25T19:13:38.587Z,101648.84
2022-11-25T19:16:45.156Z,101658.69
2022-11-25T19:19:51.340Z,101672.03
2022-11-25T19:23:01.199Z,101674.09
2022-11-25T19:26:32.159Z,101672.19
2022-11-25T19:29:42.293Z,101660.56
2022-11-25T19:32:52.362Z,101666.94
2022-11-25T19:35:59.795Z,101665.25
2022-11-25T19:39:15.828Z,101662.84
2022-11-25T19:42:23.719Z,101664.22
2022-11-25T19:45:31.536Z,101662.25
2022-11-25T19:48:39.939Z,101670.56
2022-11-25T19:51:47.684Z,101682.16
2022-11-25T19:54:54.133Z,101679.13
2022-11-25T19:58:00.898Z,101675.03
2022-11-25T20:01:07.173Z,101678.88
2022-11-25T20:04:21.884Z,101684.19
2022-11-25T20:07:28.059Z,101681.41
2022-11-25T20:10:33.587Z,101687.91
2022-11-25T20:13:40.620Z,101690.72
2022-11-25T20:16:46.822Z,101688.88
2022-11-25T20:19:57.517Z,101682.88
2022-11-25T20:23:16.608Z,101685.00
2022-11-25T20:26:34.798Z,101686.63
2022-11-25T20:29:40.992Z,101688.34
2022-11-25T20:32:47.592Z,101690.75
2022-11-25T20:36:14.927Z,101697.22
2022-11-25T20:39:21.925Z,101700.59
2022-11-25T20:42:28.190Z,101706.09
2022-11-25T20:45:34.398Z,101708.66
2022-11-25T20:48:40.265Z,101721.09
2022-11-25T20:51:46.747Z,101717.72
2022-11-25T20:54:53.083Z,101724.03
2022-11-25T20:58:00.041Z,101722.00
2022-11-25T21:01:07.135Z,101727.47
2022-11-25T21:04:13.605Z,101727.31
2022-11-25T21:07:19.956Z,101720.38
2022-11-25T21:10:29.798Z,101722.00
2022-11-25T21:13:36.690Z,101731.78
2022-11-25T21:16:43.079Z,101727.75
2022-11-25T21:19:49.180Z,101725.09
2022-11-25T21:22:58.581Z,101731.97
2022-11-25T21:26:17.428Z,101739.81
2022-11-25T21:29:23.890Z,101736.25
2022-11-25T21:32:29.806Z,101742.41
2022-11-25T21:35:38.127Z,101748.03
2022-11-25T21:38:45.210Z,101749.34
2022-11-25T21:41:51.536Z,101759.84
2022-11-25T21:44:57.794Z,101756.19
2022-11-25T21:48:03.850Z,101748.69
2022-11-25T21:51:22.292Z,101758.66
2022-11-25T21:54:28.033Z,101754.09
2022-11-25T21:57:33.741Z,101759.28
2022-11-25T22:00:39.913Z,101756.75
2022-11-25T22:03:46.531Z,101750.59
2022-11-25T22:06:52.787Z,101754.72
2022-11-25T22:09:58.850Z,101761.31
2022-11-25T22:13:06.887Z,101761.41
2022-11-25T22:16:17.889Z,101768.69
2022-11-25T22:19:27.716Z,101778.59
2022-11-25T22:22:34.730Z,101774.72
2022-11-25T22:25:40.446Z,101782.06
2022-11-25T22:28:50.506Z,101783.97
2022-11-25T22:31:56.360Z,101785.81
2022-11-25T22:35:02.678Z,101777.94
2022-11-25T22:38:18.938Z,101773.19
2022-11-25T22:41:24.591Z,101779.41
2022-11-25T22:44:43.107Z,101774.19
2022-11-25T22:47:49.537Z,101776.84
2022-11-25T22:50:55.072Z,101773.22
2022-11-25T22:54:00.856Z,101768.41
2022-11-25T22:57:06.697Z,101766.03
2022-11-25T23:00:21.700Z,101762.22
2022-11-25T23:03:30.106Z,101765.72
2022-11-25T23:06:36.056Z,101758.50
2022-11-25T23:09:43.464Z,101761.69
2022-11-25T23:12:49.663Z,101760.09
2022-11-25T23:16:00.509Z,101760.53
2022-11-25T23:19:09.392Z,101761.09
2022-11-25T23:22:15.125Z,101763.22
2022-11-25T23:25:23.086Z,101762.97
2022-11-25T23:28:28.531Z,101767.91
2022-11-25T23:31:38.708Z,101767.44
2022-11-25T23:34:45.509Z,101765.16
2022-11-25T23:37:57.258Z,101766.13
2022-11-25T23:41:03.077Z,101774.94
2022-11-25T23:44:24.201Z,101769.28
2022-11-25T23:47:29.652Z,101768.63
2022-11-25T23:50:35.328Z,101774.56
2022-11-25T23:53:41.940Z,101763.44
2022-11-25T23:56:48.695Z,101775.94
2022-11-25T23:59:55.131Z,101775.94
